createdAt,value
2022-11-14T00:01:10.369Z,73.93
2022-11-14T00:03:38.108Z,76.13
2022-11-14T00:06:07.286Z,79.67
2022-11-14T00:08:35.718Z,80.80
2022-11-14T00:11:03.599Z,78.13
2022-11-14T00:13:31.321Z,80.33
2022-11-14T00:16:00.351Z,75.97
2022-11-14T00:18:28.381Z,76.87
2022-11-14T00:20:56.320Z,82.27
2022-11-14T00:23:24.022Z,76.77
2022-11-14T00:25:51.745Z,81.90
2022-11-14T00:28:19.441Z,81.70
2022-11-14T00:30:50.423Z,83.17
2022-11-14T00:33:21.129Z,95.70
2022-11-14T00:35:53.554Z,85.83
2022-11-14T00:38:21.427Z,91.13
2022-11-14T00:40:49.260Z,88.60
2022-11-14T00:43:16.957Z,82.53
2022-11-14T00:45:45.275Z,75.40
2022-11-14T00:48:12.981Z,70.93
2022-11-14T00:50:42.311Z,73.67
2022-11-14T00:53:10.247Z,71.00
2022-11-14T00:55:37.989Z,67.17
2022-11-14T00:58:05.704Z,64.00
2022-11-14T01:00:33.504Z,68.80
2022-11-14T01:03:01.442Z,69.00
2022-11-14T01:05:29.393Z,80.67
2022-11-14T01:07:58.455Z,76.87
2022-11-14T01:10:26.590Z,86.83
2022-11-14T01:12:54.332Z,79.40
2022-11-14T01:15:22.021Z,79.33
2022-11-14T01:17:49.717Z,74.73
2022-11-14T01:20:17.452Z,79.40
2022-11-14T01:22:45.188Z,86.97
2022-11-14T01:25:14.250Z,82.30
2022-11-14T01:27:41.984Z,80.10
2022-11-14T01:30:10.285Z,81.70
2022-11-14T01:32:38.451Z,86.07
2022-11-14T01:35:06.499Z,82.30
2022-11-14T01:37:34.259Z,88.40
2022-11-14T01:40:01.922Z,87.20
2022-11-14T01:42:30.953Z,83.97
2022-11-14T01:44:58.637Z,84.47
2022-11-14T01:47:30.563Z,88.37
2022-11-14T01:50:01.427Z,84.20
2022-11-14T01:52:32.580Z,82.63
2022-11-14T01:55:02.849Z,87.13
2022-11-14T01:57:36.244Z,77.07
2022-11-14T02:00:08.773Z,85.73
2022-11-14T02:02:37.492Z,78.70
2022-11-14T02:05:08.405Z,84.67
2022-11-14T02:07:39.900Z,84.70
2022-11-14T02:10:10.839Z,82.10
2022-11-14T02:12:40.047Z,77.03
2022-11-14T02:15:08.918Z,80.57
2022-11-14T02:17:36.968Z,75.07
2022-11-14T02:20:17.869Z,84.03
2022-11-14T02:22:45.619Z,73.40
2022-11-14T02:25:18.222Z,69.10
2022-11-14T02:27:45.975Z,80.37
2022-11-14T02:30:16.459Z,77.87
2022-11-14T02:33:09.405Z,77.97
2022-11-14T02:35:33.382Z,76.30
2022-11-14T02:38:01.096Z,79.67
2022-11-14T02:40:28.791Z,71.80
2022-11-14T02:42:56.551Z,80.53
2022-11-14T02:45:24.284Z,77.50
2022-11-14T02:47:52.027Z,82.23
2022-11-14T02:50:19.965Z,73.93
2022-11-14T02:52:49.197Z,74.10
2022-11-14T02:55:17.089Z,84.23
2022-11-14T02:57:44.802Z,85.10
2022-11-14T03:00:15.292Z,82.27
2022-11-14T03:02:43.327Z,76.93
2022-11-14T03:05:11.273Z,81.63
2022-11-14T03:07:39.012Z,76.60
2022-11-14T03:10:09.569Z,77.13
2022-11-14T03:12:37.354Z,76.67
2022-11-14T03:15:05.827Z,78.23
2022-11-14T03:17:34.346Z,75.40
2022-11-14T03:20:02.085Z,79.47
2022-11-14T03:22:30.043Z,82.13
2022-11-14T03:24:57.939Z,81.73
2022-11-14T03:27:26.998Z,83.40
2022-11-14T03:29:54.720Z,70.57
2022-11-14T03:32:22.458Z,82.30
2022-11-14T03:34:50.189Z,79.07
2022-11-14T03:37:17.928Z,80.27
2022-11-14T03:39:45.639Z,77.43
2022-11-14T03:42:13.346Z,77.17
2022-11-14T03:44:42.565Z,74.70
2022-11-14T03:47:10.307Z,85.63
2022-11-14T03:49:38.035Z,78.77
2022-11-14T03:52:06.003Z,78.17
2022-11-14T03:54:33.722Z,82.77
2022-11-14T03:57:01.450Z,86.17
2022-11-14T03:59:29.157Z,92.37
2022-11-14T04:01:58.236Z,90.57
2022-11-14T04:04:26.015Z,92.43
2022-11-14T04:06:53.814Z,107.20
2022-11-14T04:09:21.613Z,109.50
2022-11-14T04:11:49.318Z,111.50
2022-11-14T04:14:17.034Z,108.57
2022-11-14T04:16:44.755Z,109.33
2022-11-14T04:19:13.797Z,112.53
2022-11-14T04:21:41.593Z,119.70
2022-11-14T04:24:11.202Z,119.40
2022-11-14T04:26:39.171Z,114.63
2022-11-14T04:29:06.870Z,102.87
2022-11-14T04:31:34.626Z,102.73
2022-11-14T04:34:02.447Z,116.00
2022-11-14T04:36:31.538Z,108.43
2022-11-14T04:38:59.330Z,112.90
2022-11-14T04:41:27.068Z,114.70
2022-11-14T04:43:54.825Z,109.57
2022-11-14T04:46:22.713Z,104.77
2022-11-14T04:48:50.433Z,109.33
2022-11-14T04:51:18.209Z,109.53
2022-11-14T04:53:47.267Z,107.00
2022-11-14T04:56:15.046Z,112.07
2022-11-14T04:58:42.755Z,109.37
2022-11-14T05:01:11.062Z,106.17
2022-11-14T05:03:38.865Z,109.00
2022-11-14T05:06:06.926Z,96.10
2022-11-14T05:08:35.169Z,103.47
2022-11-14T05:11:04.239Z,98.80
2022-11-14T05:13:31.981Z,96.27
2022-11-14T05:16:00.655Z,94.30
2022-11-14T05:18:28.798Z,101.73
2022-11-14T05:20:59.459Z,113.27
2022-11-14T05:23:27.715Z,99.50
2022-11-14T05:26:05.243Z,117.40
2022-11-14T05:28:33.179Z,111.93
2022-11-14T05:31:04.707Z,103.53
2022-11-14T05:33:32.996Z,110.30
2022-11-14T05:36:04.558Z,113.57
2022-11-14T05:38:32.717Z,114.03
2022-11-14T05:41:00.748Z,102.53
2022-11-14T05:43:31.920Z,105.03
2022-11-14T05:46:00.776Z,102.63
2022-11-14T05:48:28.791Z,104.90
2022-11-14T05:50:57.343Z,98.93
2022-11-14T05:53:25.466Z,117.57
2022-11-14T05:55:53.325Z,109.80
2022-11-14T05:58:21.052Z,97.63
2022-11-14T06:00:54.150Z,114.00
2022-11-14T06:03:22.482Z,112.80
2022-11-14T06:05:50.436Z,112.70
2022-11-14T06:08:18.269Z,123.17
2022-11-14T06:10:46.195Z,110.63
2022-11-14T06:13:14.034Z,118.87
2022-11-14T06:15:42.170Z,109.07
2022-11-14T06:18:11.379Z,106.37
2022-11-14T06:20:39.293Z,94.07
2022-11-14T06:23:07.206Z,113.83
2022-11-14T06:25:35.219Z,107.87
2022-11-14T06:28:03.077Z,114.40
2022-11-14T06:30:31.038Z,105.87
2022-11-14T06:32:59.960Z,124.37
2022-11-14T06:35:29.248Z,120.10
2022-11-14T06:37:57.189Z,124.73
2022-11-14T06:40:25.187Z,137.97
2022-11-14T06:42:56.238Z,131.83
2022-11-14T06:45:24.223Z,124.70
2022-11-14T06:47:52.102Z,121.30
2022-11-14T06:50:19.959Z,130.80
2022-11-14T06:52:49.247Z,126.80
2022-11-14T06:55:22.356Z,143.33
2022-11-14T06:57:54.844Z,142.20
2022-11-14T07:00:22.911Z,133.40
2022-11-14T07:02:50.933Z,131.33
2022-11-14T07:05:18.808Z,136.87
2022-11-14T07:07:46.711Z,122.37
2022-11-14T07:10:16.020Z,123.53
2022-11-14T07:12:44.046Z,116.10
2022-11-14T07:15:12.104Z,128.73
2022-11-14T07:17:40.087Z,123.87
2022-11-14T07:20:09.308Z,112.93
2022-11-14T07:22:37.209Z,107.03
2022-11-14T07:25:05.520Z,110.00
2022-11-14T07:27:34.774Z,112.53
2022-11-14T07:30:02.702Z,106.80
2022-11-14T07:32:30.579Z,107.33
2022-11-14T07:35:02.293Z,111.23
2022-11-14T07:37:30.662Z,110.33
2022-11-14T07:39:58.610Z,102.40
2022-11-14T07:42:29.996Z,105.07
2022-11-14T07:44:59.233Z,104.17
2022-11-14T07:47:28.341Z,97.37
2022-11-14T07:49:56.206Z,89.83
2022-11-14T07:52:24.276Z,98.87
2022-11-14T07:54:52.201Z,97.50
2022-11-14T07:57:20.222Z,101.53
2022-11-14T07:59:49.250Z,82.93
2022-11-14T08:02:18.487Z,94.07
2022-11-14T08:04:46.378Z,85.87
2022-11-14T08:07:14.471Z,90.43
2022-11-14T08:09:42.385Z,85.80
2022-11-14T08:12:10.264Z,84.93
2022-11-14T08:14:38.123Z,87.53
2022-11-14T08:17:06.363Z,77.60
2022-11-14T08:19:35.562Z,87.20
2022-11-14T08:22:03.478Z,84.03
2022-11-14T08:24:31.419Z,75.67
2022-11-14T08:26:59.477Z,73.40
2022-11-14T08:29:27.381Z,71.93
2022-11-14T08:31:59.732Z,75.10
2022-11-14T08:34:29.267Z,74.70
2022-11-14T08:36:58.622Z,71.10
2022-11-14T08:39:26.483Z,69.27
2022-11-14T08:41:54.448Z,72.93
2022-11-14T08:44:22.607Z,69.27
2022-11-14T08:46:51.429Z,66.23
2022-11-14T08:49:19.470Z,66.43
2022-11-14T08:51:47.404Z,65.90
2022-11-14T08:54:16.599Z,62.70
2022-11-14T08:56:44.459Z,61.87
2022-11-14T08:59:12.392Z,61.30
2022-11-14T09:01:40.316Z,58.93
2022-11-14T09:04:09.131Z,61.00
2022-11-14T09:06:37.089Z,59.70
2022-11-14T09:09:05.115Z,57.17
2022-11-14T09:11:34.382Z,57.23
2022-11-14T09:14:02.942Z,58.50
2022-11-14T09:16:30.892Z,57.10
2022-11-14T09:18:58.762Z,61.87
2022-11-14T09:21:26.822Z,52.60
2022-11-14T09:24:00.408Z,57.83
2022-11-14T09:26:29.551Z,58.07
2022-11-14T09:28:58.886Z,55.87
2022-11-14T09:31:26.772Z,50.80
2022-11-14T09:33:54.976Z,54.90
2022-11-14T09:36:23.918Z,50.93
2022-11-14T09:38:52.907Z,51.20
2022-11-14T09:41:25.764Z,47.57
2022-11-14T09:44:25.527Z,49.23
2022-11-14T09:46:57.694Z,47.10
2022-11-14T09:49:30.925Z,47.80
2022-11-14T09:52:04.242Z,49.47
2022-11-14T09:54:42.051Z,46.90
2022-11-14T09:57:16.271Z,43.63
2022-11-14T09:59:45.726Z,44.20
2022-11-14T10:02:30.577Z,48.70
2022-11-14T10:05:12.187Z,46.93
2022-11-14T10:07:52.822Z,48.40
2022-11-14T10:10:38.352Z,46.60
2022-11-14T10:13:18.527Z,42.00
2022-11-14T10:15:55.008Z,44.27
2022-11-14T10:18:39.630Z,43.23
2022-11-14T10:21:22.879Z,42.97
2022-11-14T10:24:03.181Z,47.77
2022-11-14T10:26:33.115Z,43.97
2022-11-14T10:29:16.577Z,46.03
2022-11-14T10:31:55.530Z,44.40
2022-11-14T10:34:31.281Z,46.23
2022-11-14T10:37:04.224Z,45.97
2022-11-14T10:39:39.401Z,41.37
2022-11-14T10:42:14.500Z,40.27
2022-11-14T10:44:50.534Z,39.57
2022-11-14T10:47:24.273Z,39.90
2022-11-14T10:49:56.910Z,40.17
2022-11-14T10:52:37.972Z,44.63
2022-11-14T10:55:11.384Z,42.43
2022-11-14T10:57:39.268Z,37.70
2022-11-14T11:00:15.950Z,38.90
2022-11-14T11:02:53.708Z,39.47
2022-11-14T11:05:23.238Z,33.63
2022-11-14T11:08:41.544Z,36.37
2022-11-14T11:11:29.240Z,34.63
2022-11-14T11:13:59.189Z,37.67
2022-11-14T11:16:30.255Z,35.80
2022-11-14T11:19:16.111Z,33.87
2022-11-14T11:21:49.660Z,32.43
2022-11-14T11:24:33.072Z,33.53
2022-11-14T11:27:23.810Z,28.97
2022-11-14T11:30:04.785Z,33.23
2022-11-14T11:32:32.947Z,32.00
2022-11-14T11:35:04.757Z,28.40
2022-11-14T11:37:40.211Z,30.30
2022-11-14T11:40:16.920Z,30.60
2022-11-14T11:45:36.365Z,28.47
2022-11-14T11:48:14.907Z,28.43
2022-11-14T11:50:44.267Z,30.30
2022-11-14T11:53:19.995Z,30.07
2022-11-14T11:55:51.243Z,25.23
2022-11-14T11:58:23.767Z,25.50
2022-11-14T12:00:55.162Z,24.87
2022-11-14T12:03:25.507Z,24.60
2022-11-14T12:06:01.674Z,26.07
2022-11-14T12:08:37.071Z,27.57
2022-11-14T12:11:10.177Z,24.73
2022-11-14T12:14:03.064Z,30.90
2022-11-14T12:16:56.151Z,28.30
2022-11-14T12:19:59.247Z,25.43
2022-11-14T12:23:07.944Z,23.87
2022-11-14T12:26:07.626Z,24.93
2022-11-14T12:29:08.896Z,25.33
2022-11-14T12:31:39.405Z,23.77
2022-11-14T12:34:20.684Z,22.47
2022-11-14T12:36:48.872Z,23.27
2022-11-14T12:39:26.534Z,20.40
2022-11-14T12:42:03.499Z,23.50
2022-11-14T12:44:36.935Z,20.48
2022-11-14T12:47:15.336Z,19.33
2022-11-14T12:50:14.296Z,19.77
2022-11-14T12:52:45.038Z,19.57
2022-11-14T12:55:46.248Z,18.60
2022-11-14T12:58:22.457Z,18.40
2022-11-14T13:01:09.672Z,22.37
2022-11-14T13:03:54.473Z,19.37
2022-11-14T13:06:26.654Z,20.17
2022-11-14T13:09:27.416Z,18.60
2022-11-14T13:12:12.745Z,17.70
2022-11-14T13:15:10.350Z,16.10
2022-11-14T13:17:56.120Z,18.77
2022-11-14T13:20:46.535Z,18.07
2022-11-14T13:23:59.555Z,19.67
2022-11-14T13:26:47.529Z,19.33
2022-11-14T13:29:57.802Z,19.97
2022-11-14T13:32:55.425Z,18.57
2022-11-14T13:35:42.999Z,19.10
2022-11-14T13:38:45.949Z,20.10
2022-11-14T13:41:47.916Z,18.27
2022-11-14T13:44:44.801Z,17.63
2022-11-14T13:47:30.308Z,19.70
2022-11-14T13:50:04.793Z,17.40
2022-11-14T13:52:35.610Z,17.63
2022-11-14T13:55:04.037Z,18.40
2022-11-14T13:57:42.907Z,18.90
2022-11-14T14:00:19.609Z,21.50
2022-11-14T14:03:10.801Z,21.10
2022-11-14T14:06:05.133Z,18.60
2022-11-14T14:08:51.919Z,19.53
2022-11-14T14:11:41.682Z,20.70
2022-11-14T14:14:24.241Z,21.10
2022-11-14T14:16:57.736Z,24.43
2022-11-14T14:19:38.671Z,20.47
2022-11-14T14:22:16.091Z,20.27
2022-11-14T14:24:55.943Z,23.87
2022-11-14T14:27:30.296Z,21.23
2022-11-14T14:30:08.846Z,19.43
2022-11-14T14:32:36.772Z,20.53
2022-11-14T14:35:22.917Z,21.70
2022-11-14T14:37:53.288Z,21.13
2022-11-14T14:40:26.543Z,22.40
2022-11-14T14:42:57.383Z,21.67
2022-11-14T14:45:28.270Z,21.23
2022-11-14T14:48:03.382Z,24.00
2022-11-14T14:50:38.269Z,20.53
2022-11-14T14:53:08.105Z,19.37
2022-11-14T14:55:37.128Z,23.57
2022-11-14T14:58:22.023Z,24.93
2022-11-14T15:00:54.070Z,20.20
2022-11-14T15:03:23.817Z,17.53
2022-11-14T15:05:59.166Z,19.40
2022-11-14T15:08:31.190Z,21.50
2022-11-14T15:11:01.121Z,21.27
2022-11-14T15:13:30.966Z,20.53
2022-11-14T15:15:59.172Z,23.53
2022-11-14T15:18:29.539Z,18.60
2022-11-14T15:21:17.174Z,20.33
2022-11-14T15:23:46.494Z,19.83
2022-11-14T15:26:17.249Z,23.47
2022-11-14T15:28:45.690Z,19.23
2022-11-14T15:31:21.555Z,24.40
2022-11-14T15:34:02.732Z,21.70
2022-11-14T15:36:30.804Z,23.83
2022-11-14T15:39:05.848Z,21.50
2022-11-14T15:41:34.677Z,20.73
2022-11-14T15:44:05.699Z,22.43
2022-11-14T15:46:47.247Z,26.13
2022-11-14T15:49:24.022Z,25.10
2022-11-14T15:51:55.468Z,22.37
2022-11-14T15:54:27.410Z,24.23
2022-11-14T15:56:56.928Z,20.27
2022-11-14T15:59:25.897Z,24.40
2022-11-14T16:01:59.110Z,25.10
2022-11-14T16:04:32.010Z,23.27
2022-11-14T16:07:00.357Z,23.37
2022-11-14T16:09:29.633Z,24.30
2022-11-14T16:11:57.497Z,25.50
2022-11-14T16:14:25.355Z,23.30
2022-11-14T16:16:53.304Z,27.30
2022-11-14T16:19:21.963Z,26.73
2022-11-14T16:21:50.271Z,25.47
2022-11-14T16:24:20.076Z,27.57
2022-11-14T16:26:49.789Z,28.50
2022-11-14T16:29:17.639Z,23.37
2022-11-14T16:31:45.432Z,25.07
2022-11-14T16:34:19.264Z,28.10
2022-11-14T16:36:48.558Z,27.43
2022-11-14T16:39:16.659Z,26.30
2022-11-14T16:41:44.455Z,22.60
2022-11-14T16:44:17.220Z,26.67
2022-11-14T16:46:45.343Z,24.60
2022-11-14T16:49:15.253Z,24.43
2022-11-14T16:51:48.439Z,22.37
2022-11-14T16:54:17.984Z,25.83
2022-11-14T16:56:45.741Z,25.80
2022-11-14T16:59:15.304Z,26.00
2022-11-14T17:01:43.414Z,25.73
2022-11-14T17:04:11.195Z,30.60
2022-11-14T17:06:38.950Z,32.43
2022-11-14T17:09:06.658Z,27.30
2022-11-14T17:11:34.598Z,25.13
2022-11-14T17:14:02.338Z,26.13
2022-11-14T17:16:31.412Z,25.33
2022-11-14T17:18:59.187Z,26.90
2022-11-14T17:21:28.044Z,29.13
2022-11-14T17:23:56.494Z,26.70
2022-11-14T17:26:24.768Z,25.77
2022-11-14T17:28:52.518Z,26.13
2022-11-14T17:31:20.393Z,24.50
2022-11-14T17:33:53.854Z,25.27
2022-11-14T17:36:22.651Z,29.77
2022-11-14T17:38:50.418Z,32.83
2022-11-14T17:41:19.006Z,31.63
2022-11-14T17:43:47.133Z,30.57
2022-11-14T17:46:16.339Z,31.50
2022-11-14T17:48:44.549Z,30.53
2022-11-14T17:51:15.604Z,33.83
2022-11-14T17:53:44.006Z,31.70
2022-11-14T17:56:15.350Z,38.43
2022-11-14T17:58:43.167Z,40.13
2022-11-14T18:01:11.608Z,29.07
2022-11-14T18:03:39.522Z,30.27
2022-11-14T18:06:09.080Z,35.60
2022-11-14T18:08:38.631Z,31.33
2022-11-14T18:11:09.910Z,30.60
2022-11-14T18:13:38.902Z,29.07
2022-11-14T18:16:09.142Z,26.13
2022-11-14T18:18:38.126Z,26.63
2022-11-14T18:21:10.116Z,29.40
2022-11-14T18:23:39.647Z,26.03
2022-11-14T18:26:11.328Z,30.03
2022-11-14T18:28:39.096Z,24.97
2022-11-14T18:31:08.376Z,23.83
2022-11-14T18:33:36.441Z,25.27
2022-11-14T18:36:06.529Z,26.90
2022-11-14T18:38:34.324Z,28.23
2022-11-14T18:41:07.481Z,30.60
2022-11-14T18:43:35.220Z,29.27
2022-11-14T18:46:08.092Z,34.03
2022-11-14T18:48:36.473Z,36.17
2022-11-14T18:51:05.135Z,50.07
2022-11-14T18:53:33.764Z,53.70
2022-11-14T18:56:05.984Z,49.03
2022-11-14T18:58:35.965Z,39.47
2022-11-14T19:01:10.933Z,32.73
2022-11-14T19:03:38.736Z,32.00
2022-11-14T19:06:08.279Z,36.07
2022-11-14T19:08:36.053Z,36.87
2022-11-14T19:11:07.400Z,28.50
2022-11-14T19:13:35.160Z,30.40
2022-11-14T19:16:03.649Z,34.90
2022-11-14T19:18:32.248Z,36.33
2022-11-14T19:21:01.680Z,33.50
2022-11-14T19:23:30.129Z,32.90
2022-11-14T19:26:00.538Z,32.17
2022-11-14T19:28:30.282Z,30.50
2022-11-14T19:31:02.878Z,28.03
2022-11-14T19:33:31.009Z,30.60
2022-11-14T19:35:59.494Z,30.37
2022-11-14T19:38:27.261Z,31.00
2022-11-14T19:40:55.033Z,29.60
2022-11-14T19:43:25.329Z,31.33
2022-11-14T19:45:56.313Z,32.63
2022-11-14T19:48:24.605Z,30.93
2022-11-14T19:51:00.172Z,32.07
2022-11-14T19:53:28.460Z,32.67
2022-11-14T19:56:00.680Z,34.17
2022-11-14T19:58:28.430Z,29.23
2022-11-14T20:01:03.202Z,28.33
2022-11-14T20:03:31.363Z,30.10
2022-11-14T20:05:59.474Z,28.00
2022-11-14T20:08:27.339Z,27.07
2022-11-14T20:10:59.073Z,26.50
2022-11-14T20:13:27.115Z,26.03
2022-11-14T20:15:54.863Z,28.50
2022-11-14T20:18:23.894Z,29.10
2022-11-14T20:20:51.700Z,27.37
2022-11-14T20:23:19.714Z,30.07
2022-11-14T20:25:52.057Z,30.37
2022-11-14T20:28:19.844Z,32.27
2022-11-14T20:30:47.617Z,32.80
2022-11-14T20:33:15.412Z,30.47
2022-11-14T20:35:45.045Z,31.37
2022-11-14T20:38:12.914Z,35.60
2022-11-14T20:40:40.713Z,35.20
2022-11-14T20:43:09.053Z,31.83
2022-11-14T20:45:36.762Z,33.47
2022-11-14T20:48:05.495Z,33.00
2022-11-14T20:50:33.235Z,31.70
2022-11-14T20:53:02.269Z,32.27
2022-11-14T20:55:30.044Z,33.43
2022-11-14T20:57:57.787Z,30.87
2022-11-14T21:00:25.562Z,30.93
2022-11-14T21:02:53.681Z,29.00
2022-11-14T21:05:21.402Z,31.20
2022-11-14T21:07:49.224Z,30.63
2022-11-14T21:10:36.292Z,30.97
2022-11-14T21:13:26.422Z,27.83
2022-11-14T21:15:56.806Z,29.97
2022-11-14T21:18:24.563Z,29.80
2022-11-14T21:21:00.108Z,24.70
2022-11-14T21:23:27.860Z,31.17
2022-11-14T21:26:04.417Z,33.43
2022-11-14T21:28:32.684Z,30.40
2022-11-14T21:31:01.065Z,28.37
2022-11-14T21:33:31.419Z,27.87
2022-11-14T21:36:16.303Z,28.67
2022-11-14T21:38:48.139Z,34.67
2022-11-14T21:41:19.036Z,35.00
2022-11-14T21:43:47.724Z,32.33
2022-11-14T21:46:17.584Z,32.83
2022-11-14T21:48:46.711Z,35.63
2022-11-14T21:51:16.334Z,34.77
2022-11-14T21:53:45.644Z,35.40
2022-11-14T21:56:15.008Z,33.57
2022-11-14T21:58:44.721Z,32.57
2022-11-14T22:01:14.648Z,31.40
2022-11-14T22:04:00.685Z,31.87
2022-11-14T22:06:29.136Z,37.30
2022-11-14T22:08:56.917Z,35.30
2022-11-14T22:11:25.020Z,33.33
2022-11-14T22:13:54.144Z,37.17
2022-11-14T22:16:22.034Z,31.97
2022-11-14T22:18:52.253Z,33.87
2022-11-14T22:21:19.970Z,31.97
2022-11-14T22:23:47.756Z,31.80
2022-11-14T22:26:15.761Z,34.20
2022-11-14T22:28:43.488Z,32.83
2022-11-14T22:31:14.216Z,34.73
2022-11-14T22:33:46.796Z,37.27
2022-11-14T22:36:16.442Z,34.77
2022-11-14T22:38:45.101Z,36.53
2022-11-14T22:41:17.278Z,38.13
2022-11-14T22:43:45.673Z,36.83
2022-11-14T22:46:17.119Z,35.30
2022-11-14T22:48:46.134Z,35.97
2022-11-14T22:51:15.895Z,35.57
2022-11-14T22:53:46.265Z,36.27
2022-11-14T22:56:13.948Z,34.90
2022-11-14T22:58:42.964Z,34.93
2022-11-14T23:01:14.465Z,34.00
2022-11-14T23:03:42.276Z,35.10
2022-11-14T23:06:10.928Z,36.07
2022-11-14T23:08:38.877Z,39.93
2022-11-14T23:11:09.392Z,38.27
2022-11-14T23:13:41.264Z,42.50
2022-11-14T23:16:09.413Z,39.50
2022-11-14T23:18:39.179Z,43.20
2022-11-14T23:21:08.705Z,48.23
2022-11-14T23:23:36.575Z,39.47
2022-11-14T23:26:05.188Z,36.37
2022-11-14T23:28:33.395Z,35.43
2022-11-14T23:31:02.101Z,38.70
2022-11-14T23:33:30.480Z,36.27
2022-11-14T23:35:59.863Z,39.30
2022-11-14T23:38:28.004Z,38.27
2022-11-14T23:40:57.036Z,35.40
2022-11-14T23:43:25.034Z,34.13
2022-11-14T23:45:52.762Z,39.03
2022-11-14T23:48:21.947Z,39.33
2022-11-14T23:50:51.222Z,44.53
2022-11-14T23:53:20.679Z,44.87
2022-11-14T23:55:53.076Z,43.20
2022-11-14T23:58:21.298Z,41.40
